Time;durP1;ratioP1;P1;durP2;ratioP2;P2;SDS_P1;SDS_P2;PMS_P1;PMS_P2;Temp;Humidity;BMP_temperature;BMP_pressure;BME280_temperature;BME280_humidity;BME280_pressure;Samples;Min_cycle;Max_cycle;Signal;HPM_P1;HPM_P2
2022/08/07 00:01:09;;;;;;;0.40;0.40;;;12.00;99.90;;;;;;5057652;28;20053;-79
2022/08/07 00:03:35;;;;;;;0.40;0.40;;;11.60;99.90;;;;;;5054745;28;20554;-79
2022/08/07 00:06:02;;;;;;;0.40;0.40;;;11.80;99.90;;;;;;5056914;28;20056;-76
2022/08/07 00:08:28;;;;;;;0.25;0.25;;;11.70;99.90;;;;;;5051178;28;20124;-79
2022/08/07 00:10:54;;;;;;;0.40;0.40;;;11.70;99.90;;;;;;5057278;28;20124;-76
2022/08/07 00:13:21;;;;;;;0.40;0.40;;;11.70;99.90;;;;;;5050082;28;20044;-80
2022/08/07 00:15:47;;;;;;;0.85;0.47;;;11.80;99.90;;;;;;5056061;28;20045;-75
2022/08/07 00:18:19;;;;;;;0.50;0.50;;;11.60;99.90;;;;;;5052082;28;20037;-78
2022/08/07 00:20:45;;;;;;;0.40;0.40;;;11.60;99.90;;;;;;5045824;28;20037;-80
2022/08/07 00:23:10;;;;;;;0.45;0.45;;;11.50;99.90;;;;;;5038180;28;20513;-78
2022/08/07 00:25:36;;;;;;;0.32;0.32;;;11.30;99.90;;;;;;5062261;28;20044;-81
2022/08/07 00:28:02;;;;;;;0.45;0.45;;;11.60;99.90;;;;;;5050370;28;20040;-78
2022/08/07 00:30:28;;;;;;;0.40;0.40;;;11.50;99.90;;;;;;5056757;28;20653;-81
2022/08/07 00:32:59;;;;;;;0.40;0.40;;;11.50;99.90;;;;;;5035853;28;20178;-80
2022/08/07 00:35:25;;;;;;;0.35;0.35;;;11.50;99.90;;;;;;5052591;28;20089;-78
2022/08/07 00:37:51;;;;;;;0.30;0.30;;;11.40;99.90;;;;;;5028750;28;20077;-75
2022/08/07 00:40:17;;;;;;;0.40;0.40;;;11.50;99.90;;;;;;5050751;28;20092;-79
2022/08/07 00:42:44;;;;;;;0.35;0.35;;;11.40;99.90;;;;;;5051737;28;20050;-74
2022/08/07 00:45:10;;;;;;;0.35;0.35;;;11.40;99.90;;;;;;5053802;28;20072;-77
2022/08/07 00:47:36;;;;;;;0.40;0.40;;;11.40;99.90;;;;;;5051951;28;20041;-77
2022/08/07 00:50:02;;;;;;;;;;;11.30;99.90;;;;;;5053560;28;20075;-75
2022/08/07 00:52:28;;;;;;;0.40;0.40;;;11.30;99.90;;;;;;5052220;28;19917;-78
2022/08/07 00:54:54;;;;;;;0.50;0.50;;;11.30;99.90;;;;;;5055098;28;20068;-78
2022/08/07 00:57:24;;;;;;;0.40;0.40;;;11.20;99.90;;;;;;5022539;28;20036;-76
2022/08/07 00:59:50;;;;;;;0.40;0.40;;;11.20;99.90;;;;;;5051562;28;20041;-77
2022/08/07 01:02:16;;;;;;;0.38;0.38;;;11.30;99.90;;;;;;5064374;28;20044;-78
2022/08/07 01:04:42;;;;;;;0.43;0.43;;;11.20;99.90;;;;;;5068355;28;20049;-78
2022/08/07 01:07:08;;;;;;;0.30;0.30;;;11.20;99.90;;;;;;5056152;28;20167;-78
2022/08/07 01:09:34;;;;;;;0.50;0.50;;;11.20;99.90;;;;;;5033231;28;20040;-77
2022/08/07 01:12:03;;;;;;;0.32;0.32;;;11.10;99.90;;;;;;5036780;28;20386;-76
2022/08/07 01:14:30;;;;;;;0.50;0.50;;;11.20;99.90;;;;;;5033809;28;20079;-77
2022/08/07 01:16:57;;;;;;;0.40;0.40;;;11.10;99.90;;;;;;5050583;28;20045;-79
2022/08/07 01:19:28;;;;;;;0.60;0.60;;;11.20;99.90;;;;;;5056002;28;20033;-79
2022/08/07 01:21:54;;;;;;;0.40;0.40;;;11.20;99.90;;;;;;5055258;28;20044;-76
2022/08/07 01:24:21;;;;;;;0.50;0.50;;;11.10;99.90;;;;;;5067129;28;20045;-79
2022/08/07 01:26:50;;;;;;;0.50;0.50;;;11.40;99.90;;;;;;5007597;28;20036;-75
2022/08/07 01:29:15;;;;;;;0.35;0.35;;;11.10;99.90;;;;;;5057665;28;20088;-78
2022/08/07 01:31:43;;;;;;;0.45;0.45;;;11.20;99.90;;;;;;5057872;28;20084;-74
2022/08/07 01:34:10;;;;;;;0.40;0.40;;;11.00;99.90;;;;;;5031453;28;20107;-77
2022/08/07 01:36:36;;;;;;;0.40;0.40;;;11.00;99.90;;;;;;5051405;28;20494;-74
2022/08/07 01:39:05;;;;;;;0.40;0.40;;;11.00;99.90;;;;;;5054330;28;20041;-76
2022/08/07 01:41:32;;;;;;;0.38;0.38;;;11.40;99.90;;;;;;5035758;28;20044;-76
2022/08/07 01:43:57;;;;;;;0.40;0.40;;;11.00;99.90;;;;;;5050600;28;20490;-76
2022/08/07 01:46:26;;;;;;;0.38;0.38;;;11.20;99.90;;;;;;5053487;28;20052;-80
2022/08/07 01:48:52;;;;;;;0.40;0.40;;;11.00;99.90;;;;;;5051446;28;20047;-77
2022/08/07 01:51:21;;;;;;;0.50;0.50;;;11.10;99.90;;;;;;5053656;28;20100;-77
2022/08/07 01:53:51;;;;;;;0.40;0.40;;;11.20;99.90;;;;;;5034560;28;20080;-78
2022/08/07 01:56:23;;;;;;;0.50;0.50;;;11.00;99.90;;;;;;5033515;28;20048;-77
2022/08/07 01:59:03;;;;;;;0.47;0.47;;;10.80;99.90;;;;;;5050473;28;20120;-77
2022/08/07 02:01:35;;;;;;;0.43;0.43;;;10.90;99.90;;;;;;5053225;28;20128;-77
2022/08/07 02:04:08;;;;;;;0.43;0.43;;;10.70;99.90;;;;;;5048267;28;20045;-76
2022/08/07 02:06:36;;;;;;;0.50;0.50;;;10.70;99.90;;;;;;5051167;28;20450;-75
2022/08/07 02:09:04;;;;;;;0.40;0.40;;;10.60;99.90;;;;;;5044085;28;20518;-77
2022/08/07 02:11:33;;;;;;;0.32;0.32;;;10.70;99.90;;;;;;5042210;28;20458;-78
2022/08/07 02:14:00;;;;;;;0.30;0.30;;;10.60;99.90;;;;;;5036826;28;20067;-79
2022/08/07 02:16:28;;;;;;;0.35;0.35;;;10.60;99.90;;;;;;5050117;28;20530;-77
2022/08/07 02:18:55;;;;;;;0.40;0.40;;;10.60;99.90;;;;;;5049819;28;20124;-75
2022/08/07 02:21:21;;;;;;;0.50;0.50;;;11.00;99.90;;;;;;5058403;28;20083;-75
2022/08/07 02:23:48;;;;;;;0.57;0.57;;;10.90;99.90;;;;;;5018889;28;20084;-77
2022/08/07 02:26:15;;;;;;;0.45;0.45;;;11.10;99.90;;;;;;5049602;28;20482;-78
2022/08/07 02:28:41;;;;;;;0.40;0.40;;;11.00;99.90;;;;;;5055245;28;20071;-77
2022/08/07 02:31:09;;;;;;;0.40;0.40;;;10.70;99.90;;;;;;5040401;28;20037;-75
2022/08/07 02:33:36;;;;;;;0.40;0.40;;;10.60;99.90;;;;;;5056751;28;20101;-77
2022/08/07 02:36:03;;;;;;;0.50;0.50;;;10.90;99.90;;;;;;5056575;28;20041;-76
2022/08/07 02:38:37;;;;;;;0.40;0.40;;;10.60;99.90;;;;;;5039108;28;20036;-76
2022/08/07 02:41:05;;;;;;;0.40;0.40;;;11.30;99.90;;;;;;5054380;28;20033;-79
2022/08/07 02:43:34;;;;;;;0.60;0.60;;;10.50;99.90;;;;;;5056659;28;20094;-75
2022/08/07 02:46:03;;;;;;;0.47;0.47;;;10.70;99.90;;;;;;5037122;28;20056;-77
2022/08/07 02:48:29;;;;;;;0.45;0.45;;;10.60;99.90;;;;;;5064786;28;20224;-74
2022/08/07 02:51:02;;;;;;;0.40;0.40;;;10.60;99.90;;;;;;5055190;28;20049;-79
2022/08/07 02:53:33;;;;;;;0.40;0.40;;;10.70;99.90;;;;;;5057815;28;20094;-77
2022/08/07 02:56:02;;;;;;;0.50;0.50;;;10.60;99.90;;;;;;5057928;28;20477;-78
2022/08/07 02:58:30;;;;;;;0.50;0.50;;;10.50;99.90;;;;;;5056204;28;20372;-80
2022/08/07 03:00:58;;;;;;;0.30;0.30;;;10.80;99.90;;;;;;5053532;28;20048;-76
2022/08/07 03:03:26;;;;;;;0.40;0.40;;;10.80;99.90;;;;;;5051177;28;20128;-74
2022/08/07 03:05:55;;;;;;;0.45;0.45;;;10.50;99.90;;;;;;5055096;28;20045;-77
2022/08/07 03:08:21;;;;;;;0.40;0.40;;;10.70;99.90;;;;;;5047264;28;20502;-77
2022/08/07 03:10:47;;;;;;;0.40;0.40;;;10.50;99.90;;;;;;5068186;28;20055;-79
2022/08/07 03:13:17;;;;;;;0.50;0.50;;;10.40;99.90;;;;;;5051963;28;20060;-79
2022/08/07 03:15:44;;;;;;;0.52;0.52;;;10.40;99.90;;;;;;5023083;28;20079;-77
2022/08/07 03:18:11;;;;;;;0.50;0.50;;;10.30;99.90;;;;;;5056474;28;20482;-79
2022/08/07 03:20:39;;;;;;;0.50;0.50;;;10.40;99.90;;;;;;5060110;28;20090;-78
2022/08/07 03:23:06;;;;;;;0.30;0.30;;;10.50;99.90;;;;;;5049433;28;20037;-79
2022/08/07 03:25:40;;;;;;;0.40;0.40;;;10.30;99.90;;;;;;5046451;28;20162;-77
2022/08/07 03:28:12;;;;;;;0.50;0.50;;;10.20;99.90;;;;;;5052919;28;20041;-78
2022/08/07 03:30:39;;;;;;;0.30;0.30;;;10.60;99.90;;;;;;5040709;28;20079;-78
2022/08/07 03:33:07;;;;;;;0.43;0.43;;;10.40;99.90;;;;;;5050591;28;20057;-78
2022/08/07 03:35:35;;;;;;;0.40;0.40;;;10.20;99.90;;;;;;5051865;28;20117;-76
2022/08/07 03:38:06;;;;;;;0.40;0.40;;;10.50;99.90;;;;;;5050378;28;20037;-79
2022/08/07 03:40:34;;;;;;;0.30;0.30;;;10.50;99.90;;;;;;5053411;28;20052;-76
2022/08/07 03:43:01;;;;;;;0.30;0.30;;;10.20;99.90;;;;;;5052517;28;20076;-79
2022/08/07 03:45:28;;;;;;;0.32;0.32;;;10.80;99.90;;;;;;5053223;28;20051;-75
2022/08/07 03:47:55;;;;;;;0.35;0.35;;;10.20;99.90;;;;;;5054081;28;20120;-80
2022/08/07 03:50:23;;;;;;;0.30;0.30;;;10.40;99.90;;;;;;5047451;28;20495;-78
2022/08/07 03:52:50;;;;;;;0.40;0.40;;;10.20;99.90;;;;;;5054409;28;20471;-78
2022/08/07 03:55:16;;;;;;;0.47;0.47;;;10.40;99.90;;;;;;5051049;28;20390;-76
2022/08/07 03:57:43;;;;;;;0.50;0.50;;;10.20;99.90;;;;;;5037661;28;20041;-80
2022/08/07 04:00:10;;;;;;;0.52;0.52;;;10.30;99.90;;;;;;5053837;28;20048;-77
2022/08/07 04:02:36;;;;;;;0.50;0.50;;;10.30;99.90;;;;;;5053072;28;20391;-78
2022/08/07 04:05:04;;;;;;;0.30;0.30;;;10.70;99.90;;;;;;5039707;28;20052;-79
2022/08/07 04:07:31;;;;;;;0.30;0.30;;;10.40;99.90;;;;;;5053963;28;20106;-76
2022/08/07 04:09:57;;;;;;;0.50;0.50;;;10.40;99.90;;;;;;5043731;28;20059;-77
2022/08/07 04:12:24;;;;;;;0.30;0.30;;;10.50;99.90;;;;;;5053588;28;20102;-78
2022/08/07 04:14:50;;;;;;;0.35;0.35;;;10.70;99.90;;;;;;5034584;28;20041;-77
2022/08/07 04:17:16;;;;;;;0.50;0.50;;;10.60;99.90;;;;;;5034354;28;20394;-76
2022/08/07 04:19:42;;;;;;;0.50;0.50;;;10.40;99.90;;;;;;5055656;28;20406;-79
2022/08/07 04:22:09;;;;;;;0.47;0.47;;;10.90;99.90;;;;;;5053166;28;20128;-78
2022/08/07 04:24:36;;;;;;;0.40;0.40;;;10.70;99.90;;;;;;5053541;28;20057;-79
2022/08/07 04:27:03;;;;;;;0.73;0.73;;;10.50;99.90;;;;;;5037083;28;20117;-79
2022/08/07 04:29:29;;;;;;;1.05;0.88;;;10.60;99.90;;;;;;5056528;28;20127;-80
2022/08/07 04:31:55;;;;;;;0.30;0.30;;;10.50;99.90;;;;;;5036880;28;20140;-77
2022/08/07 04:34:22;;;;;;;0.55;0.55;;;10.60;99.90;;;;;;5052221;28;20067;-79
2022/08/07 04:36:48;;;;;;;0.43;0.43;;;10.70;99.90;;;;;;5036951;28;20387;-76
2022/08/07 04:39:14;;;;;;;0.20;0.20;;;10.60;99.90;;;;;;5053545;28;20423;-78
2022/08/07 04:41:40;;;;;;;0.40;0.40;;;10.90;99.90;;;;;;5049316;28;20029;-77
2022/08/07 04:44:07;;;;;;;0.60;0.60;;;10.70;99.90;;;;;;4999006;28;20541;-76
2022/08/07 04:46:43;;;;;;;0.40;0.40;;;11.00;99.90;;;;;;5035582;28;20044;-75
2022/08/07 04:49:17;;;;;;;0.40;0.40;;;10.80;99.90;;;;;;5053377;28;20483;-76
2022/08/07 04:51:54;;;;;;;0.50;0.50;;;11.00;99.90;;;;;;5054841;28;20080;-75
2022/08/07 04:54:31;;;;;;;0.43;0.43;;;11.00;99.90;;;;;;5036212;28;20041;-77
2022/08/07 04:57:01;;;;;;;0.32;0.32;;;10.90;99.90;;;;;;5036949;28;20048;-77
2022/08/07 05:00:08;;;;;;;0.40;0.40;;;11.10;99.90;;;;;;5054177;28;20037;-78
2022/08/07 05:03:12;;;;;;;0.50;0.50;;;11.10;99.90;;;;;;5031498;28;20045;-78
2022/08/07 05:05:56;;;;;;;0.40;0.40;;;11.30;99.90;;;;;;5055554;28;20375;-74
2022/08/07 05:08:37;;;;;;;0.50;0.50;;;11.50;99.90;;;;;;5063230;28;20048;-82
2022/08/07 05:11:23;;;;;;;0.30;0.30;;;11.50;99.90;;;;;;5050847;28;20410;-78
2022/08/07 05:14:10;;;;;;;0.43;0.43;;;11.60;99.90;;;;;;5054360;28;20040;-77
2022/08/07 05:16:37;;;;;;;;;;;11.70;99.90;;;;;;5015155;28;20182;-78
2022/08/07 05:19:10;;;;;;;0.32;0.32;;;11.80;99.90;;;;;;5053316;28;19923;-77
2022/08/07 05:21:43;;;;;;;;;;;11.40;99.90;;;;;;5061352;28;20363;-75
2022/08/07 05:24:16;;;;;;;0.40;0.40;;;12.10;99.90;;;;;;5056098;28;20357;-79
2022/08/07 05:26:43;;;;;;;0.28;0.28;;;12.20;99.90;;;;;;5058385;28;20048;-79
2022/08/07 05:29:12;;;;;;;0.40;0.40;;;12.30;99.90;;;;;;5058480;28;20540;-76
2022/08/07 05:31:41;;;;;;;0.32;0.32;;;12.30;99.90;;;;;;5054219;28;20040;-80
2022/08/07 05:34:11;;;;;;;0.20;0.20;;;12.40;99.90;;;;;;5052234;28;20126;-79
2022/08/07 05:36:40;;;;;;;0.28;0.28;;;12.40;99.90;;;;;;5052339;28;20041;-77
2022/08/07 05:39:07;;;;;;;0.77;0.77;;;12.80;99.90;;;;;;5059166;28;20037;-75
2022/08/07 05:41:33;;;;;;;0.50;0.50;;;12.60;99.90;;;;;;5035727;28;20044;-78
2022/08/07 05:44:00;;;;;;;0.40;0.40;;;12.90;99.90;;;;;;5054978;28;20045;-79
2022/08/07 05:46:26;;;;;;;1.83;0.70;;;12.90;99.90;;;;;;5051664;28;20048;-78
2022/08/07 05:48:52;;;;;;;0.40;0.40;;;12.90;99.90;;;;;;5051405;28;20064;-78
2022/08/07 05:51:19;;;;;;;0.30;0.30;;;13.00;99.90;;;;;;5053546;28;20041;-77
2022/08/07 05:53:45;;;;;;;0.40;0.40;;;13.00;99.90;;;;;;5034220;28;20044;-75
2022/08/07 05:56:14;;;;;;;0.47;0.47;;;13.10;99.90;;;;;;5036366;28;20053;-77
2022/08/07 05:58:41;;;;;;;0.30;0.30;;;13.30;99.90;;;;;;5052385;28;20112;-77
2022/08/07 06:01:09;;;;;;;0.60;0.60;;;13.70;99.90;;;;;;5050369;28;20701;-76
2022/08/07 06:03:37;;;;;;;0.43;0.43;;;13.70;99.90;;;;;;5056476;28;20044;-79
2022/08/07 06:06:05;;;;;;;0.40;0.40;;;13.80;99.90;;;;;;5035672;28;20123;-77
2022/08/07 06:08:31;;;;;;;0.68;0.68;;;;;;;;;;5050216;28;20049;-76
2022/08/07 06:10:58;;;;;;;0.50;0.50;;;;;;;;;;5050085;28;20480;-81
2022/08/07 06:13:24;;;;;;;0.40;0.40;;;;;;;;;;5041544;28;20482;-75
2022/08/07 06:15:50;;;;;;;0.40;0.40;;;;;;;;;;5053210;28;20513;-77
2022/08/07 06:18:17;;;;;;;0.52;0.52;;;;;;;;;;5053602;28;20094;-77
2022/08/07 06:20:44;;;;;;;0.20;0.20;;;;;;;;;;5061084;28;20044;-79
2022/08/07 06:23:10;;;;;;;2.72;1.00;;;;;;;;;;5044970;28;20094;-78
2022/08/07 06:25:39;;;;;;;0.40;0.40;;;;;;;;;;5054155;28;20037;-78
2022/08/07 06:28:06;;;;;;;0.40;0.40;;;;;;;;;;5053555;28;20044;-78
2022/08/07 06:30:33;;;;;;;0.40;0.40;;;;;;;;;;5060050;28;20045;-78
2022/08/07 06:32:59;;;;;;;0.32;0.32;;;;;;;;;;5035607;28;20044;-76
2022/08/07 06:35:26;;;;;;;0.40;0.40;;;;;;;;;;5051829;28;20052;-76
2022/08/07 06:37:52;;;;;;;;;;;;;;;;;;5049645;28;20045;-76
2022/08/07 06:40:18;;;;;;;0.63;0.63;;;;;;;;;;5049953;28;19936;-79
2022/08/07 06:42:46;;;;;;;0.30;0.30;;;;;;;;;;5048957;28;20482;-76
2022/08/07 06:45:14;;;;;;;0.43;0.43;;;;;;;;;;5050004;28;20102;-78
2022/08/07 06:47:41;;;;;;;0.38;0.38;;;;;;;;;;5049507;28;20051;-77
2022/08/07 06:50:08;;;;;;;0.43;0.43;;;;;;;;;;5050037;28;20132;-77
2022/08/07 06:52:36;;;;;;;0.30;0.30;;;;;;;;;;5057802;28;20049;-78
2022/08/07 06:55:22;;;;;;;0.30;0.30;;;;;;;;;;5052162;28;20041;-76
2022/08/07 06:57:49;;;;;;;0.30;0.30;;;;;;;;;;5054127;28;20037;-78
2022/08/07 07:00:16;;;;;;;0.63;0.50;;;;;;;;;;5049465;28;20402;-77
2022/08/07 07:02:43;;;;;;;0.30;0.30;;;;;;;;;;5065509;28;20120;-78
2022/08/07 07:05:10;;;;;;;0.20;0.20;;;;;;;;;;5064663;28;20048;-76
2022/08/07 07:07:36;;;;;;;0.63;0.63;;;;;;;;;;5056733;28;20049;-79
2022/08/07 07:10:03;;;;;;;0.30;0.30;;;;;;;;;;5044713;28;20505;-76
2022/08/07 07:12:29;;;;;;;0.40;0.40;;;;;;;;;;5037118;28;20453;-79
2022/08/07 07:14:54;;;;;;;;;;;;;;;;;;5063270;28;20535;-80
2022/08/07 07:17:38;;;;;;;0.98;0.32;;;;;;;;;;5038828;28;19920;-77
2022/08/07 07:20:08;;;;;;;0.30;0.30;;;;;;;;;;5049305;28;20120;-77
2022/08/07 07:22:38;;;;;;;0.30;0.30;;;;;;;;;;5056215;28;20036;-80
2022/08/07 07:25:04;;;;;;;0.50;0.50;;;;;;;;;;5052485;28;20076;-79
2022/08/07 07:27:33;;;;;;;0.30;0.30;;;;;;;;;;5053786;28;20041;-75
2022/08/07 07:30:02;;;;;;;0.20;0.20;;;;;;;;;;5038960;28;20136;-76
2022/08/07 07:32:28;;;;;;;0.50;0.50;;;;;;;;;;5054850;28;20040;-75
2022/08/07 07:34:56;;;;;;;0.75;0.75;;;;;;;;;;5053267;28;20513;-75
2022/08/07 07:37:24;;;;;;;0.40;0.40;;;;;;;;;;5050143;28;20150;-79
2022/08/07 07:39:51;;;;;;;0.30;0.30;;;;;;;;;;5051767;28;20040;-79
2022/08/07 07:42:18;;;;;;;0.70;0.70;;;;;;;;;;5052653;28;20041;-77
2022/08/07 07:44:45;;;;;;;1.38;0.60;;;;;;;;;;5064024;28;20052;-77
2022/08/07 07:47:13;;;;;;;0.43;0.43;;;;;;;;;;5056764;28;20132;-74
2022/08/07 07:49:40;;;;;;;0.52;0.52;;;;;;;;;;5062133;28;20076;-79
2022/08/07 07:52:06;;;;;;;0.30;0.30;;;;;;;;;;5052290;28;20041;-77
2022/08/07 07:54:34;;;;;;;0.60;0.60;;;;;;;;;;5051721;28;20051;-78
2022/08/07 07:57:01;;;;;;;0.68;0.68;;;;;;;;;;5032427;28;20041;-77
2022/08/07 07:59:28;;;;;;;0.40;0.40;;;;;;;;;;5033669;28;20052;-75
2022/08/07 08:02:02;;;;;;;0.40;0.40;;;;;;;;;;5062431;28;20110;-76
2022/08/07 08:04:28;;;;;;;0.22;0.22;;;;;;;;;;5051400;28;20063;-75
2022/08/07 08:07:00;;;;;;;1.02;0.93;;;;;;;;;;5054845;28;20045;-77
2022/08/07 08:09:27;;;;;;;0.30;0.30;;;;;;;;;;5053278;28;20045;-76
2022/08/07 08:11:54;;;;;;;0.43;0.35;;;;;;;;;;5059494;28;20041;-75
2022/08/07 08:14:21;;;;;;;0.40;0.40;;;;;;;;;;5060851;28;20041;-76
2022/08/07 08:16:48;;;;;;;0.43;0.43;;;;;;;;;;5055276;28;20151;-76
2022/08/07 08:19:16;;;;;;;0.60;0.60;;;;;;;;;;5056319;28;20033;-75
2022/08/07 08:27:20;;;;;;;0.20;0.20;;;;;;;;;;5052541;28;20120;-79
2022/08/07 08:29:48;;;;;;;0.68;0.68;;;;;;;;;;5051022;28;20140;-77
2022/08/07 08:32:17;;;;;;;0.30;0.30;;;;;;;;;;5050288;28;20107;-76
2022/08/07 08:34:45;;;;;;;0.47;0.47;;;;;;;;;;5053259;28;20471;-76
2022/08/07 08:37:12;;;;;;;0.40;0.40;;;;;;;;;;5047812;28;20051;-77
2022/08/07 08:39:39;;;;;;;0.75;0.75;;;;;;;;;;5052562;28;20032;-75
2022/08/07 08:42:11;;;;;;;0.70;0.70;;;;;;;;;;5034950;28;20174;-79
2022/08/07 08:44:40;;;;;;;0.25;0.25;;;;;;;;;;5061553;28;20124;-76
2022/08/07 08:47:08;;;;;;;0.50;0.50;;;;;;;;;;5049602;28;20114;-77
2022/08/07 08:49:40;;;;;;;0.65;0.63;;;;;;;;;;5051183;28;20044;-76
2022/08/07 08:52:25;;;;;;;0.52;0.40;;;;;;;;;;5050703;28;20037;-80
2022/08/07 08:54:59;;;;;;;0.30;0.30;;;;;;;;;;5050116;28;20048;-80
2022/08/07 08:57:37;;;;;;;0.65;0.65;;;;;;;;;;5053213;28;20508;-75
2022/08/07 09:00:10;;;;;;;0.50;0.50;;;;;;;;;;5057341;28;20183;-77
2022/08/07 09:03:03;;;;;;;0.47;0.47;;;;;;;;;;5050804;28;20045;-76
2022/08/07 09:05:29;;;;;;;0.63;0.63;;;;;;;;;;5023616;28;20052;-77
2022/08/07 09:08:04;;;;;;;0.82;0.82;;;;;;;;;;5049234;28;20052;-81
2022/08/07 09:10:49;;;;;;;0.73;0.73;;;;;;;;;;5051768;28;20439;-79
2022/08/07 09:13:30;;;;;;;0.20;0.20;;;;;;;;;;5032097;28;20064;-79
2022/08/07 09:16:19;;;;;;;0.40;0.40;;;;;;;;;;5050066;28;20033;-79
2022/08/07 09:18:56;;;;;;;0.30;0.30;;;;;;;;;;5052256;28;20047;-77
2022/08/07 09:21:26;;;;;;;0.30;0.30;;;;;;;;;;5054864;28;20522;-78
2022/08/07 09:23:56;;;;;;;1.05;1.02;;;;;;;;;;5051539;28;20044;-79
2022/08/07 09:26:28;;;;;;;0.35;0.35;;;;;;;;;;5051200;28;20055;-79
2022/08/07 09:29:21;;;;;;;0.43;0.43;;;;;;;;;;5052426;28;20049;-75
2022/08/07 09:32:07;;;;;;;0.70;0.68;;;;;;;;;;5017991;28;20099;-77
2022/08/07 09:34:52;;;;;;;1.42;1.05;;;;;;;;;;5057496;28;20045;-80
2022/08/07 09:37:33;;;;;;;0.40;0.38;;;;;;;;;;5049234;28;20037;-77
2022/08/07 09:40:05;;;;;;;0.30;0.30;;;;;;;;;;5051796;28;20537;-76
2022/08/07 09:42:37;;;;;;;0.35;0.32;;;;;;;;;;5040107;28;20186;-79
2022/08/07 09:45:11;;;;;;;0.40;0.40;;;;;;;;;;5059232;28;20055;-77
2022/08/07 09:47:44;;;;;;;0.38;0.38;;;;;;;;;;5033489;28;20064;-78
2022/08/07 09:50:13;;;;;;;0.40;0.40;;;;;;;;;;5052292;28;20056;-79
2022/08/07 09:52:51;;;;;;;0.30;0.30;;;;;;;;;;5054147;28;20081;-78
2022/08/07 09:55:36;;;;;;;0.40;0.40;;;;;;;;;;5053422;28;20448;-76
2022/08/07 09:58:11;;;;;;;0.35;0.35;;;;;;;;;;5033809;28;20135;-76
2022/08/07 10:01:10;;;;;;;0.30;0.30;;;;;;;;;;5064832;28;20045;-76
2022/08/07 10:03:46;;;;;;;0.60;0.60;;;;;;;;;;5018800;28;20062;-78
2022/08/07 10:06:31;;;;;;;0.55;0.55;;;;;;;;;;5035258;28;20487;-77
2022/08/07 10:09:09;;;;;;;1.45;0.50;;;;;;;;;;5049454;28;20554;-79
2022/08/07 10:11:38;;;;;;;1.00;0.38;;;;;;;;;;5049964;28;20045;-77
2022/08/07 10:14:05;;;;;;;0.30;0.30;;;;;;;;;;5049922;28;20053;-76
2022/08/07 10:16:37;;;;;;;0.43;0.43;;;;;;;;;;5050736;28;20119;-79
2022/08/07 10:19:22;;;;;;;0.20;0.20;;;;;;;;;;5054003;28;20491;-77
2022/08/07 10:21:51;;;;;;;0.13;0.13;;;;;;;;;;5022968;28;20037;-81
2022/08/07 10:24:50;;;;;;;0.40;0.40;;;;;;;;;;5052363;28;20055;-76
2022/08/07 10:27:28;;;;;;;0.50;0.50;;;;;;;;;;4991618;28;20064;-78
2022/08/07 10:30:05;;;;;;;0.20;0.20;;;;;;;;;;5052877;28;20092;-78
2022/08/07 10:32:55;;;;;;;0.20;0.20;;;;;;;;;;5068917;28;20095;-79
2022/08/07 10:35:25;;;;;;;0.40;0.40;;;;;;;;;;5048513;28;20081;-79
2022/08/07 10:38:10;;;;;;;0.52;0.52;;;;;;;;;;5052824;28;20115;-80
2022/08/07 10:40:40;;;;;;;0.40;0.40;;;;;;;;;;5044685;28;20041;-76
2022/08/07 10:43:23;;;;;;;0.28;0.28;;;;;;;;;;5053576;28;20049;-76
2022/08/07 10:45:57;;;;;;;0.40;0.40;;;;;;;;;;5054929;28;20376;-80
2022/08/07 10:48:47;;;;;;;0.35;0.32;;;;;;;;;;5053568;28;20091;-75
2022/08/07 10:51:34;;;;;;;0.20;0.20;;;;;;;;;;5043616;28;20053;-78
2022/08/07 10:54:11;;;;;;;0.32;0.32;;;;;;;;;;5058750;28;20045;-76
2022/08/07 10:56:45;;;;;;;0.30;0.30;;;;;;;;;;5065961;28;20505;-79
2022/08/07 10:59:24;;;;;;;0.30;0.30;;;;;;;;;;5070543;28;20048;-79
2022/08/07 11:01:53;;;;;;;0.28;0.28;;;;;;;;;;5056218;28;20049;-75
2022/08/07 11:04:44;;;;;;;0.57;0.57;;;;;;;;;;5054890;28;20585;-76
2022/08/07 11:07:19;;;;;;;0.38;0.38;;;;;;;;;;5045375;28;20140;-80
2022/08/07 11:09:48;;;;;;;0.10;0.10;;;;;;;;;;5053652;28;20488;-78
2022/08/07 11:12:44;;;;;;;0.20;0.20;;;;;;;;;;5066610;28;20047;-79
2022/08/07 11:15:17;;;;;;;0.30;0.30;;;;;;;;;;5036211;28;20071;-76
2022/08/07 11:17:47;;;;;;;0.30;0.30;;;;;;;;;;5051408;28;20041;-78
2022/08/07 11:20:21;;;;;;;0.30;0.30;;;;;;;;;;5057679;28;20052;-77
2022/08/07 11:22:54;;;;;;;0.98;0.90;;;;;;;;;;5049227;28;20459;-81
2022/08/07 11:25:32;;;;;;;0.82;0.35;;;22.70;99.90;;;;;;5055282;28;20044;-76
2022/08/07 11:28:22;;;;;;;0.30;0.30;;;23.10;99.90;;;;;;5061265;28;20044;-76
2022/08/07 11:31:03;;;;;;;0.40;0.40;;;23.40;99.90;;;;;;5049734;28;20049;-80
2022/08/07 11:33:48;;;;;;;0.50;0.50;;;23.60;99.80;;;;;;5051009;28;20053;-75
2022/08/07 11:36:46;;;;;;;0.20;0.20;;;23.60;99.00;;;;;;5043356;28;20067;-78
2022/08/07 11:39:16;;;;;;;0.20;0.20;;;23.80;98.20;;;;;;5052329;28;20049;-77
2022/08/07 11:42:06;;;;;;;0.20;0.20;;;23.60;98.70;;;;;;5039426;28;20043;-79
2022/08/07 11:44:51;;;;;;;0.13;0.13;;;23.50;98.90;;;;;;5059254;28;20052;-78
2022/08/07 11:47:54;;;;;;;0.15;0.15;;;23.70;99.50;;;;;;5052082;28;20052;-78
2022/08/07 11:50:58;;;;;;;0.55;0.55;;;23.90;99.30;;;;;;5055276;28;20049;-78
2022/08/07 11:53:35;;;;;;;1.48;0.63;;;23.80;98.50;;;;;;5064126;28;20053;-77
2022/08/07 11:56:27;;;;;;;0.20;0.20;;;23.30;99.10;;;;;;5061574;28;20051;-78
2022/08/07 11:59:10;;;;;;;0.20;0.20;;;22.90;98.90;;;;;;5041907;28;20437;-76
2022/08/07 12:01:59;;;;;;;0.25;0.25;;;22.70;98.80;;;;;;5049672;28;20069;-80
2022/08/07 12:04:36;;;;;;;0.40;0.40;;;22.70;98.90;;;;;;5057200;28;20036;-79
2022/08/07 12:07:08;;;;;;;0.30;0.30;;;22.70;98.60;;;;;;5061060;28;20049;-78
2022/08/07 12:09:47;;;;;;;0.20;0.20;;;22.70;99.50;;;;;;5044049;28;20041;-75
2022/08/07 12:12:52;;;;;;;0.22;0.22;;;22.50;99.90;;;;;;5057183;28;20055;-76
2022/08/07 12:15:24;;;;;;;1.30;1.20;;;22.50;99.30;;;;;;5012767;28;20561;-79
2022/08/07 12:18:14;;;;;;;0.45;0.45;;;22.50;99.90;;;;;;5053858;28;20057;-77
2022/08/07 12:21:07;;;;;;;0.40;0.40;;;22.90;99.90;;;;;;5061047;28;20044;-76
2022/08/07 12:23:38;;;;;;;0.60;0.60;;;22.80;99.60;;;;;;5054133;28;20119;-77
2022/08/07 12:26:13;;;;;;;0.38;0.38;;;22.90;99.90;;;;;;5067124;28;20034;-75
2022/08/07 12:28:55;;;;;;;0.80;0.43;;;23.20;99.90;;;;;;5055078;28;20044;-76
2022/08/07 12:31:26;;;;;;;0.40;0.40;;;;;;;;;;5064549;28;20041;-77
2022/08/07 12:33:53;;;;;;;0.20;0.20;;;23.40;97.70;;;;;;5035505;28;20053;-76
2022/08/07 12:36:19;;;;;;;2.95;1.27;;;23.20;98.90;;;;;;5053301;28;20067;-78
2022/08/07 12:38:55;;;;;;;0.20;0.20;;;23.10;99.30;;;;;;5063812;28;20049;-80
2022/08/07 12:41:24;;;;;;;0.30;0.30;;;22.80;99.90;;;;;;5044609;28;20114;-79
2022/08/07 12:43:52;;;;;;;0.40;0.40;;;22.70;99.90;;;;;;5057895;28;20094;-80
2022/08/07 12:46:50;;;;;;;0.38;0.38;;;22.80;99.90;;;;;;5075384;28;20095;-78
2022/08/07 12:50:05;;;;;;;0.20;0.20;;;22.70;99.90;;;;;;5026691;28;20401;-77
2022/08/07 12:52:53;;;;;;;0.28;0.28;;;22.90;99.90;;;;;;4984307;28;20534;-75
2022/08/07 12:55:55;;;;;;;0.25;0.25;;;22.80;99.90;;;;;;5051222;28;20387;-81
2022/08/07 12:58:21;;;;;;;0.20;0.20;;;22.90;99.90;;;;;;4993722;28;20057;-78
2022/08/07 13:01:18;;;;;;;0.22;0.22;;;23.00;99.90;;;;;;5035508;28;20178;-78
2022/08/07 13:04:13;;;;;;;0.40;0.40;;;22.90;99.90;;;;;;5065131;28;20049;-76
2022/08/07 13:07:12;;;;;;;0.20;0.20;;;22.90;99.90;;;;;;5043268;28;20078;-78
2022/08/07 13:10:00;;;;;;;0.55;0.55;;;22.90;99.90;;;;;;5051205;28;20136;-78
2022/08/07 13:12:34;;;;;;;0.20;0.20;;;22.90;99.90;;;;;;5052766;28;20041;-77
2022/08/07 13:15:27;;;;;;;0.63;0.60;;;22.90;99.90;;;;;;5044407;28;20041;-79
2022/08/07 13:18:17;;;;;;;0.77;0.77;;;22.90;99.90;;;;;;5048385;28;20494;-79
2022/08/07 13:20:54;;;;;;;0.28;0.28;;;22.90;99.90;;;;;;5056045;28;20045;-75
2022/08/07 13:23:48;;;;;;;0.30;0.30;;;23.20;99.90;;;;;;5058394;28;20413;-78
2022/08/07 13:26:18;;;;;;;0.30;0.30;;;23.30;99.90;;;;;;5050794;28;20055;-75
2022/08/07 13:29:11;;;;;;;0.65;0.35;;;23.60;99.90;;;;;;5034706;28;20041;-78
2022/08/07 13:31:58;;;;;;;1.63;1.42;;;24.00;99.90;;;;;;5046123;28;20055;-78
2022/08/07 13:34:49;;;;;;;1.00;1.00;;;24.20;99.90;;;;;;5033264;28;20037;-75
2022/08/07 13:37:41;;;;;;;0.40;0.40;;;23.90;99.90;;;;;;5052881;28;20037;-75
2022/08/07 13:40:26;;;;;;;0.40;0.40;;;23.60;99.90;;;;;;5050759;28;20072;-76
2022/08/07 13:42:58;;;;;;;0.45;0.35;;;23.50;99.90;;;;;;5059795;28;20076;-79
2022/08/07 13:45:25;;;;;;;0.50;0.50;;;23.30;99.90;;;;;;5057994;28;20044;-78
2022/08/07 13:47:55;;;;;;;0.68;0.63;;;23.40;99.90;;;;;;5044707;28;20380;-80
2022/08/07 13:50:24;;;;;;;0.15;0.15;;;23.40;99.90;;;;;;5053349;28;20175;-78
2022/08/07 13:52:52;;;;;;;0.17;0.17;;;23.40;99.90;;;;;;5045988;28;20120;-76
2022/08/07 13:55:22;;;;;;;0.38;0.38;;;23.20;99.90;;;;;;5051354;28;20475;-76
2022/08/07 13:57:58;;;;;;;0.30;0.30;;;23.20;99.90;;;;;;5066524;28;20120;-77
2022/08/07 14:00:34;;;;;;;0.22;0.22;;;23.10;99.90;;;;;;5053045;28;20040;-77
2022/08/07 14:03:04;;;;;;;0.20;0.20;;;23.30;99.90;;;;;;5031760;28;20495;-79